Lopatcong, New Jersey
Current Conditions -  °F | °C
As of 6:51 PM on Monday 22 Dec 2014 (Local Time) from KABE Reporting Station
Haze Haze  
Wind Chill: 30°   Ceiling: 500
Heat Index: 37°   Visibility: 2.5mi
Dew Point: 34°   Wind: 10mph
Humidity: 89%   Direction: 70°ENE
Pressure: 30.2"   Gusts: NA
Location:  40.7083°N, 75.1472°W
Report Text: KABE 222351Z 07009KT 2 1/2SM BR OVC005 03/01 A3020 RMK AO2 SFC VIS 4 SLP231 T00280011 10056 20028 56001
Loading
Personal Weather Stations






























Interactive Weather Map New forecast layout! Learn more

10-Day Weather Forecast

Advertisements
Track Severe Weather on mobile